createdAt,value
2018-11-06T00:00:16.327Z,89.10
2018-11-06T00:02:45.972Z,89.00
2018-11-06T00:05:16.364Z,89.40
2018-11-06T00:07:45.788Z,89.50
2018-11-06T00:10:14.646Z,89.80
2018-11-06T00:12:43.559Z,90.00
2018-11-06T00:15:12.576Z,90.00
2018-11-06T00:17:41.494Z,90.00
2018-11-06T00:20:12.434Z,90.30
2018-11-06T00:22:41.450Z,90.20
2018-11-06T00:25:11.471Z,90.40
2018-11-06T00:27:41.258Z,90.40
2018-11-06T00:30:12.644Z,90.40
2018-11-06T00:32:42.071Z,90.40
2018-11-06T00:35:12.250Z,90.40
2018-11-06T00:37:42.503Z,90.40
2018-11-06T00:40:11.402Z,90.30
2018-11-06T00:42:41.002Z,90.20
2018-11-06T00:45:13.020Z,90.20
2018-11-06T00:47:43.131Z,90.30
2018-11-06T00:50:13.262Z,90.50
2018-11-06T00:52:42.976Z,90.60
2018-11-06T00:55:11.994Z,90.90
2018-11-06T00:57:43.067Z,91.00
2018-11-06T01:00:14.349Z,91.00
2018-11-06T01:02:43.243Z,91.00
2018-11-06T01:05:13.855Z,91.10
2018-11-06T01:07:44.233Z,91.10
2018-11-06T01:10:13.524Z,91.20
2018-11-06T01:12:42.450Z,91.20
2018-11-06T01:15:12.660Z,91.20
2018-11-06T01:17:42.146Z,91.10
2018-11-06T01:20:13.960Z,91.20
2018-11-06T01:22:42.941Z,91.20
2018-11-06T01:25:12.340Z,91.20
2018-11-06T01:27:42.085Z,91.10
2018-11-06T01:30:16.283Z,91.10
2018-11-06T01:32:45.887Z,91.20
2018-11-06T01:35:15.437Z,91.20
2018-11-06T01:37:44.872Z,91.20
2018-11-06T01:40:15.799Z,91.20
2018-11-06T01:42:45.862Z,91.60
2018-11-06T01:45:16.646Z,92.20
2018-11-06T01:47:45.618Z,92.60
2018-11-06T01:50:15.681Z,92.30
2018-11-06T01:52:45.607Z,92.30
2018-11-06T01:55:14.556Z,92.40
2018-11-06T01:57:43.417Z,92.30
2018-11-06T02:00:15.618Z,92.40
2018-11-06T02:02:45.427Z,92.40
2018-11-06T02:05:16.461Z,92.30
2018-11-06T02:07:46.584Z,92.40
2018-11-06T02:10:16.066Z,92.30
2018-11-06T02:12:45.758Z,92.30
2018-11-06T02:15:14.611Z,92.20
2018-11-06T02:17:45.330Z,92.00
2018-11-06T02:20:14.991Z,91.30
2018-11-06T02:22:45.105Z,91.60
2018-11-06T02:25:14.451Z,91.60
2018-11-06T02:27:43.367Z,91.50
2018-11-06T02:30:14.146Z,92.10
2018-11-06T02:32:43.942Z,92.60
2018-11-06T02:35:12.929Z,92.20
2018-11-06T02:37:41.841Z,92.20
2018-11-06T02:40:14.802Z,92.20
2018-11-06T02:42:43.819Z,92.30
2018-11-06T02:45:13.982Z,92.80
2018-11-06T02:47:46.779Z,92.40
2018-11-06T02:50:15.905Z,92.80
2018-11-06T02:52:45.210Z,93.20
2018-11-06T02:55:14.566Z,93.30
2018-11-06T02:57:43.565Z,93.40
2018-11-06T03:00:18.447Z,93.50
2018-11-06T03:02:48.089Z,93.60
2018-11-06T03:05:16.958Z,93.80
2018-11-06T03:07:45.849Z,93.90
2018-11-06T03:10:15.434Z,94.00
2018-11-06T03:12:45.002Z,94.10
2018-11-06T03:15:14.794Z,94.30
2018-11-06T03:17:43.702Z,94.50
2018-11-06T03:20:13.335Z,94.50
2018-11-06T03:22:42.909Z,94.60
2018-11-06T03:25:13.178Z,94.70
2018-11-06T03:27:42.094Z,94.60
2018-11-06T03:30:13.553Z,94.50
2018-11-06T03:32:42.551Z,94.50
2018-11-06T03:35:12.505Z,94.70
2018-11-06T03:37:41.372Z,94.70
2018-11-06T03:40:10.871Z,94.90
2018-11-06T03:42:41.506Z,94.80
2018-11-06T03:45:11.092Z,94.80
2018-11-06T03:47:40.697Z,95.00
2018-11-06T03:50:10.907Z,95.00
2018-11-06T03:52:39.850Z,95.10
2018-11-06T03:55:08.870Z,95.10
2018-11-06T03:57:37.787Z,95.20
2018-11-06T04:00:08.895Z,95.20
2018-11-06T04:02:38.153Z,95.20
2018-11-06T04:05:07.463Z,95.20
2018-11-06T04:07:37.183Z,95.30
2018-11-06T04:10:07.208Z,95.20
2018-11-06T04:12:36.092Z,95.10
2018-11-06T04:15:04.979Z,95.10
2018-11-06T04:17:33.928Z,95.10
2018-11-06T04:20:03.206Z,95.10
2018-11-06T04:22:32.587Z,95.10
2018-11-06T04:25:02.180Z,95.10
2018-11-06T04:27:31.693Z,95.10
2018-11-06T04:30:00.524Z,95.40
2018-11-06T04:32:29.492Z,95.50
2018-11-06T04:34:59.610Z,95.10
2018-11-06T04:37:28.573Z,95.20
2018-11-06T04:39:57.428Z,95.30
2018-11-06T04:42:26.401Z,95.10
2018-11-06T04:44:55.286Z,94.90
2018-11-06T04:47:24.116Z,94.90
2018-11-06T04:49:53.282Z,94.60
2018-11-06T04:52:22.108Z,94.70
2018-11-06T04:54:51.063Z,94.70
2018-11-06T04:57:19.926Z,94.80
2018-11-06T04:59:48.950Z,94.40
2018-11-06T05:02:17.960Z,94.50
2018-11-06T05:04:46.902Z,94.20
2018-11-06T05:07:15.722Z,93.90
2018-11-06T05:09:44.571Z,93.70
2018-11-06T05:12:12.855Z,93.70
2018-11-06T05:14:41.101Z,93.80
2018-11-06T05:17:09.362Z,94.00
2018-11-06T05:19:38.143Z,94.20
2018-11-06T05:22:06.915Z,94.20
2018-11-06T05:24:35.234Z,94.20
2018-11-06T05:27:04.189Z,94.40
2018-11-06T05:29:32.527Z,94.50
2018-11-06T05:32:00.832Z,94.50
2018-11-06T05:34:33.516Z,94.50
2018-11-06T05:37:01.738Z,94.60
2018-11-06T05:39:29.984Z,94.70
2018-11-06T05:41:58.197Z,94.90
2018-11-06T05:44:26.396Z,95.60
2018-11-06T05:46:54.647Z,95.70
2018-11-06T05:49:22.900Z,95.60
2018-11-06T05:51:51.124Z,95.50
2018-11-06T05:54:19.395Z,95.60
2018-11-06T05:56:47.625Z,95.60
2018-11-06T05:59:15.829Z,95.90
2018-11-06T06:01:44.658Z,95.60
2018-11-06T06:04:12.970Z,95.60
2018-11-06T06:06:41.252Z,96.00
2018-11-06T06:09:09.543Z,95.80
2018-11-06T06:11:37.831Z,96.10
2018-11-06T06:14:06.121Z,96.00
2018-11-06T06:16:34.471Z,95.90
2018-11-06T06:19:02.679Z,95.80
2018-11-06T06:21:31.057Z,95.80
2018-11-06T06:23:59.356Z,95.60
2018-11-06T06:26:27.594Z,95.60
2018-11-06T06:28:55.868Z,95.60
2018-11-06T06:31:24.114Z,95.90
2018-11-06T06:33:52.648Z,95.90
2018-11-06T06:36:21.166Z,96.30
2018-11-06T06:38:49.578Z,96.30
2018-11-06T06:41:18.790Z,96.80
2018-11-06T06:43:47.051Z,96.90
2018-11-06T06:46:15.325Z,96.70
2018-11-06T06:48:43.617Z,96.60
2018-11-06T06:51:11.884Z,96.40
2018-11-06T06:53:40.567Z,96.20
2018-11-06T06:56:08.860Z,95.90
2018-11-06T06:58:37.257Z,95.50
2018-11-06T07:01:06.712Z,95.10
2018-11-06T07:03:34.974Z,94.80
2018-11-06T07:06:03.240Z,94.70
2018-11-06T07:08:31.557Z,94.50
2018-11-06T07:10:59.924Z,94.80
2018-11-06T07:13:28.188Z,94.60
2018-11-06T07:15:56.467Z,94.60
2018-11-06T07:18:24.757Z,94.80
2018-11-06T07:20:53.011Z,94.80
2018-11-06T07:23:21.257Z,94.90
2018-11-06T07:25:49.519Z,94.80
2018-11-06T07:28:18.490Z,94.80
2018-11-06T07:30:46.766Z,94.80
2018-11-06T07:33:15.081Z,95.00
2018-11-06T07:35:43.523Z,95.30
2018-11-06T07:38:11.560Z,95.50
2018-11-06T07:40:39.855Z,95.80
2018-11-06T07:43:08.047Z,96.60
2018-11-06T07:45:36.288Z,96.20
2018-11-06T07:48:04.727Z,96.10
2018-11-06T07:50:33.072Z,96.00
2018-11-06T07:53:01.221Z,95.70
2018-11-06T07:55:29.611Z,95.60
2018-11-06T07:57:57.797Z,95.50
2018-11-06T08:00:26.572Z,95.40
2018-11-06T08:02:54.845Z,95.60
2018-11-06T08:05:23.165Z,95.50
2018-11-06T08:07:51.893Z,95.30
2018-11-06T08:10:21.244Z,95.10
2018-11-06T08:12:52.467Z,94.90
2018-11-06T08:15:20.762Z,94.80
2018-11-06T08:17:49.169Z,94.40
2018-11-06T08:20:17.644Z,94.40
2018-11-06T08:22:45.875Z,93.50
2018-11-06T08:25:15.348Z,93.40
2018-11-06T08:27:44.379Z,93.00
2018-11-06T08:30:13.071Z,92.60
2018-11-06T08:32:41.693Z,92.50
2018-11-06T08:35:12.582Z,93.10
2018-11-06T08:37:41.040Z,92.40
2018-11-06T08:40:10.183Z,91.70
2018-11-06T08:42:38.515Z,91.90
2018-11-06T08:45:08.344Z,91.40
2018-11-06T08:47:36.653Z,91.30
2018-11-06T08:50:05.720Z,90.90
2018-11-06T08:52:33.949Z,91.30
2018-11-06T08:55:02.924Z,90.90
2018-11-06T08:57:31.419Z,90.60
2018-11-06T08:59:59.915Z,90.40
2018-11-06T09:02:28.401Z,90.50
2018-11-06T09:04:56.627Z,90.30
2018-11-06T09:07:24.994Z,89.20
2018-11-06T09:09:53.285Z,89.10
2018-11-06T09:12:21.551Z,87.70
2018-11-06T09:14:49.792Z,88.80
2018-11-06T09:17:18.100Z,89.50
2018-11-06T09:19:46.336Z,87.30
2018-11-06T09:22:14.684Z,86.60
2018-11-06T09:24:43.044Z,87.50
2018-11-06T09:27:11.316Z,86.50
2018-11-06T09:29:39.637Z,86.00
2018-11-06T09:32:07.886Z,85.80
2018-11-06T09:34:36.168Z,84.50
2018-11-06T09:37:04.472Z,85.70
2018-11-06T09:39:32.745Z,84.90
2018-11-06T09:42:01.012Z,83.80
2018-11-06T09:44:30.106Z,82.30
2018-11-06T09:46:58.379Z,82.10
2018-11-06T09:49:26.721Z,82.20
2018-11-06T09:51:55.018Z,82.10
2018-11-06T09:54:23.440Z,82.70
2018-11-06T09:56:51.675Z,82.40
2018-11-06T09:59:19.988Z,83.00
2018-11-06T10:01:48.252Z,82.80
2018-11-06T10:04:16.631Z,82.90
2018-11-06T10:06:45.017Z,83.10
2018-11-06T10:09:13.162Z,82.70
2018-11-06T10:11:41.401Z,83.00
2018-11-06T10:14:09.736Z,83.00
2018-11-06T10:16:38.469Z,84.00
2018-11-06T10:19:06.781Z,83.30
2018-11-06T10:21:35.044Z,81.70
2018-11-06T10:24:03.346Z,81.60
2018-11-06T10:26:31.619Z,81.10
2018-11-06T10:28:59.888Z,81.60
2018-11-06T10:31:28.143Z,82.10
2018-11-06T10:33:56.498Z,81.60
2018-11-06T10:36:24.762Z,81.60
2018-11-06T10:38:53.014Z,81.90
2018-11-06T10:41:21.388Z,82.30
2018-11-06T10:43:49.656Z,81.10
2018-11-06T10:46:17.920Z,82.30
2018-11-06T10:48:46.178Z,80.60
2018-11-06T10:51:14.430Z,81.80
2018-11-06T10:53:42.709Z,81.10
2018-11-06T10:56:10.949Z,82.80
2018-11-06T10:58:39.362Z,81.30
2018-11-06T11:01:12.868Z,81.20
2018-11-06T11:03:46.605Z,80.70
2018-11-06T11:06:14.889Z,81.00
2018-11-06T11:08:43.154Z,81.20
2018-11-06T11:11:11.602Z,81.10
2018-11-06T11:13:39.851Z,80.00
2018-11-06T11:16:08.272Z,80.70
2018-11-06T11:18:36.512Z,79.90
2018-11-06T11:21:05.113Z,79.40
2018-11-06T11:23:33.403Z,79.90
2018-11-06T11:26:18.766Z,79.40
2018-11-06T11:28:47.066Z,79.60
2018-11-06T11:31:15.320Z,79.10
2018-11-06T11:33:43.635Z,80.10
2018-11-06T11:36:11.970Z,79.40
2018-11-06T11:38:41.081Z,77.70
2018-11-06T11:41:09.652Z,76.80
2018-11-06T11:43:38.050Z,76.80
2018-11-06T11:46:06.350Z,76.40
2018-11-06T11:48:34.608Z,76.30
2018-11-06T11:51:02.864Z,76.80
2018-11-06T11:53:31.713Z,75.60
2018-11-06T11:56:00.058Z,77.50
2018-11-06T11:58:28.308Z,76.60
2018-11-06T12:00:56.744Z,76.70
2018-11-06T12:03:24.994Z,75.80
2018-11-06T12:05:53.357Z,75.00
2018-11-06T12:08:21.604Z,75.90
2018-11-06T12:10:49.966Z,75.50
2018-11-06T12:13:18.330Z,75.10
2018-11-06T12:15:46.594Z,74.60
2018-11-06T12:18:14.980Z,75.20
2018-11-06T12:20:44.751Z,75.20
2018-11-06T12:23:13.673Z,75.20
2018-11-06T12:25:42.024Z,75.60
2018-11-06T12:28:10.785Z,76.40
2018-11-06T12:30:39.048Z,75.60
2018-11-06T12:33:07.655Z,75.40
2018-11-06T12:35:35.929Z,75.40
2018-11-06T12:38:04.335Z,74.90
2018-11-06T12:40:32.616Z,74.70
2018-11-06T12:43:01.259Z,74.20
2018-11-06T12:45:29.488Z,74.50
2018-11-06T12:47:57.830Z,74.70
2018-11-06T12:50:26.254Z,75.10
2018-11-06T12:52:54.513Z,73.80
2018-11-06T12:55:22.793Z,74.80
2018-11-06T12:57:51.032Z,73.10
2018-11-06T13:00:20.582Z,73.00
2018-11-06T13:02:49.084Z,73.40
2018-11-06T13:05:17.402Z,73.10
2018-11-06T13:07:46.004Z,73.40
2018-11-06T13:10:14.910Z,73.30
2018-11-06T13:12:43.740Z,72.60
2018-11-06T13:15:12.143Z,72.60
2018-11-06T13:17:40.487Z,72.60
2018-11-06T13:20:11.736Z,72.10
2018-11-06T13:22:40.813Z,72.30
2018-11-06T13:25:10.730Z,71.00
2018-11-06T13:27:40.116Z,72.10
2018-11-06T13:30:10.493Z,72.40
2018-11-06T13:32:39.357Z,71.50
2018-11-06T13:35:08.014Z,70.70
2018-11-06T13:37:36.776Z,71.20
2018-11-06T13:40:06.813Z,71.70
2018-11-06T13:42:35.171Z,70.30
2018-11-06T13:45:03.940Z,71.30
2018-11-06T13:47:32.061Z,70.60
2018-11-06T13:50:00.304Z,71.60
2018-11-06T13:52:29.050Z,71.30
2018-11-06T13:54:57.344Z,70.50
2018-11-06T13:57:25.620Z,70.50
2018-11-06T13:59:53.877Z,70.10
2018-11-06T14:02:22.229Z,70.30
2018-11-06T14:04:51.272Z,71.50
2018-11-06T14:07:20.617Z,70.90
2018-11-06T14:09:49.602Z,71.00
2018-11-06T14:12:18.018Z,70.30
2018-11-06T14:14:46.329Z,70.50
2018-11-06T14:17:14.690Z,71.00
2018-11-06T14:19:44.784Z,71.10
2018-11-06T14:22:13.056Z,71.30
2018-11-06T14:24:42.347Z,70.90
2018-11-06T14:27:10.776Z,70.10
2018-11-06T14:29:39.885Z,70.00
2018-11-06T14:32:08.177Z,70.70
2018-11-06T14:34:36.526Z,70.30
2018-11-06T14:37:05.715Z,70.40
2018-11-06T14:39:34.008Z,70.10
2018-11-06T14:42:02.298Z,70.80
2018-11-06T14:44:30.515Z,71.00
2018-11-06T14:46:58.811Z,70.80
2018-11-06T14:49:27.310Z,70.90
2018-11-06T14:51:55.603Z,70.70
2018-11-06T14:54:24.039Z,70.70
2018-11-06T14:56:52.428Z,70.80
2018-11-06T14:59:20.692Z,70.80
2018-11-06T15:01:49.056Z,70.90
2018-11-06T15:04:17.341Z,70.90
2018-11-06T15:06:45.682Z,70.90
2018-11-06T15:09:14.009Z,70.90
2018-11-06T15:11:42.499Z,70.90
2018-11-06T15:14:14.271Z,71.20
2018-11-06T15:16:42.688Z,71.20
2018-11-06T15:19:10.970Z,70.90
2018-11-06T15:21:39.454Z,71.50
2018-11-06T15:24:07.787Z,71.70
2018-11-06T15:26:36.320Z,71.60
2018-11-06T15:29:04.619Z,71.70
2018-11-06T15:31:32.999Z,72.00
2018-11-06T15:34:01.670Z,72.00
2018-11-06T15:36:29.989Z,72.40
2018-11-06T15:38:58.282Z,72.70
2018-11-06T15:41:26.622Z,73.60
2018-11-06T15:43:55.778Z,73.60
2018-11-06T15:46:24.073Z,73.60
2018-11-06T15:48:52.436Z,73.90
2018-11-06T15:51:20.644Z,74.00
2018-11-06T15:53:48.898Z,74.60
2018-11-06T15:56:17.181Z,74.70
2018-11-06T15:58:45.486Z,74.80
2018-11-06T16:01:14.127Z,75.10
2018-11-06T16:03:42.486Z,75.20
2018-11-06T16:06:11.008Z,75.60
2018-11-06T16:08:39.536Z,75.90
2018-11-06T16:11:07.848Z,76.20
2018-11-06T16:13:36.953Z,76.40
2018-11-06T16:16:05.823Z,76.40
2018-11-06T16:18:34.856Z,76.60
2018-11-06T16:21:03.282Z,76.60
2018-11-06T16:23:31.676Z,76.80
2018-11-06T16:25:59.971Z,77.00
2018-11-06T16:28:28.383Z,77.40
2018-11-06T16:30:56.785Z,77.50
2018-11-06T16:33:25.216Z,77.50
2018-11-06T16:35:53.595Z,77.50
2018-11-06T16:38:21.951Z,77.50
2018-11-06T16:40:50.261Z,77.80
2018-11-06T16:43:18.656Z,77.90
2018-11-06T16:45:46.936Z,78.00
2018-11-06T16:48:15.666Z,77.90
2018-11-06T16:50:43.990Z,77.70
2018-11-06T16:53:12.265Z,77.80
2018-11-06T16:55:40.544Z,77.80
2018-11-06T16:58:08.866Z,78.00
2018-11-06T17:00:37.211Z,78.00
2018-11-06T17:03:05.610Z,78.30
2018-11-06T17:05:33.838Z,78.20
2018-11-06T17:08:02.114Z,78.30
2018-11-06T17:10:30.423Z,78.30
2018-11-06T17:12:58.699Z,78.30
2018-11-06T17:15:27.135Z,78.50
2018-11-06T17:17:55.473Z,78.40
2018-11-06T17:20:24.840Z,78.30
2018-11-06T17:22:53.257Z,78.00
2018-11-06T17:25:22.689Z,78.20
2018-11-06T17:27:51.232Z,78.40
2018-11-06T17:30:19.912Z,78.50
2018-11-06T17:32:48.388Z,78.40
2018-11-06T17:35:18.043Z,78.60
2018-11-06T17:37:46.531Z,78.80
2018-11-06T17:40:17.015Z,79.20
2018-11-06T17:42:46.289Z,79.40
2018-11-06T17:45:15.873Z,79.40
2018-11-06T17:47:44.264Z,79.30
2018-11-06T17:50:14.389Z,79.20
2018-11-06T17:52:42.716Z,79.40
2018-11-06T17:55:12.497Z,78.50
2018-11-06T17:57:41.385Z,77.80
2018-11-06T18:00:18.492Z,77.90
2018-11-06T18:02:47.104Z,77.90
2018-11-06T18:05:16.448Z,78.00
2018-11-06T18:07:44.991Z,78.00
2018-11-06T18:10:14.762Z,77.80
2018-11-06T18:12:43.181Z,77.50
2018-11-06T18:15:12.159Z,77.20
2018-11-06T18:17:41.159Z,77.20
2018-11-06T18:20:10.424Z,77.10
2018-11-06T18:22:39.091Z,76.90
2018-11-06T18:25:07.802Z,77.00
2018-11-06T18:27:36.075Z,77.10
2018-11-06T18:30:06.141Z,77.00
2018-11-06T18:32:34.609Z,76.80
2018-11-06T18:35:03.075Z,76.60
2018-11-06T18:37:31.502Z,76.60
2018-11-06T18:39:59.752Z,76.70
2018-11-06T18:42:28.495Z,76.90
2018-11-06T18:44:57.087Z,77.00
2018-11-06T18:47:25.346Z,76.80
2018-11-06T18:49:53.647Z,77.90
2018-11-06T18:52:23.338Z,77.20
2018-11-06T18:54:51.783Z,77.20
2018-11-06T18:57:20.061Z,77.30
2018-11-06T18:59:48.595Z,77.50
2018-11-06T19:02:16.886Z,77.30
2018-11-06T19:04:45.421Z,77.30
2018-11-06T19:07:13.756Z,77.20
2018-11-06T19:09:42.187Z,77.30
2018-11-06T19:12:11.677Z,77.50
2018-11-06T19:14:39.904Z,77.70
2018-11-06T19:17:10.163Z,77.70
2018-11-06T19:19:38.542Z,77.40
2018-11-06T19:22:06.804Z,77.40
2018-11-06T19:24:35.099Z,77.60
2018-11-06T19:27:03.358Z,77.50
2018-11-06T19:29:31.721Z,77.40
2018-11-06T19:31:59.997Z,77.40
2018-11-06T19:34:28.250Z,77.10
2018-11-06T19:36:56.501Z,76.80
2018-11-06T19:39:24.802Z,76.50
2018-11-06T19:41:53.100Z,76.50
2018-11-06T19:44:21.337Z,76.30
2018-11-06T19:46:49.574Z,77.10
2018-11-06T19:49:17.935Z,76.40
2018-11-06T19:51:46.327Z,76.50
2018-11-06T19:54:14.647Z,76.60
2018-11-06T19:56:43.790Z,76.60
2018-11-06T19:59:12.700Z,76.40
2018-11-06T20:01:40.972Z,76.40
2018-11-06T20:04:10.109Z,76.60
2018-11-06T20:06:38.363Z,76.90
2018-11-06T20:09:08.552Z,77.30
2018-11-06T20:11:37.526Z,77.50
2018-11-06T20:14:05.944Z,77.40
2018-11-06T20:16:34.300Z,77.40
2018-11-06T20:19:02.585Z,77.40
2018-11-06T20:21:30.965Z,77.40
2018-11-06T20:23:59.229Z,77.60
2018-11-06T20:26:27.606Z,77.80
2018-11-06T20:28:56.011Z,77.80
2018-11-06T20:31:24.314Z,77.90
2018-11-06T20:33:52.672Z,77.80
2018-11-06T20:36:21.595Z,78.00
2018-11-06T20:38:50.642Z,78.20
2018-11-06T20:41:18.923Z,78.20
2018-11-06T20:43:47.252Z,78.30
2018-11-06T20:46:15.621Z,78.50
2018-11-06T20:48:43.938Z,78.80
2018-11-06T20:51:12.235Z,78.90
2018-11-06T20:53:40.640Z,79.10
2018-11-06T20:56:08.925Z,79.10
2018-11-06T20:58:37.140Z,79.10
2018-11-06T21:01:06.036Z,79.50
2018-11-06T21:03:34.275Z,79.50
2018-11-06T21:06:03.575Z,79.60
2018-11-06T21:08:32.545Z,79.70
2018-11-06T21:11:00.897Z,79.70
2018-11-06T21:13:29.118Z,79.70
2018-11-06T21:15:57.316Z,80.10
2018-11-06T21:18:25.892Z,80.20
2018-11-06T21:20:54.020Z,80.10
2018-11-06T21:23:23.423Z,80.30
2018-11-06T21:25:51.966Z,80.30
2018-11-06T21:28:20.096Z,80.50
2018-11-06T21:30:48.370Z,80.30
2018-11-06T21:33:17.286Z,80.40
2018-11-06T21:35:46.528Z,80.30
2018-11-06T21:38:14.835Z,80.30
2018-11-06T21:40:43.103Z,80.30
2018-11-06T21:43:11.485Z,80.10
2018-11-06T21:45:40.271Z,80.30
2018-11-06T21:48:08.551Z,80.50
2018-11-06T21:50:36.919Z,80.60
2018-11-06T21:53:05.297Z,80.90
2018-11-06T21:55:33.588Z,81.10
2018-11-06T21:58:02.375Z,81.00
2018-11-06T22:00:30.797Z,80.90
2018-11-06T22:02:58.924Z,81.00
2018-11-06T22:05:27.222Z,80.80
2018-11-06T22:07:55.526Z,80.80
2018-11-06T22:10:23.829Z,80.80
2018-11-06T22:12:52.826Z,81.00
2018-11-06T22:15:21.160Z,81.00
2018-11-06T22:17:49.403Z,81.00
2018-11-06T22:20:18.779Z,81.60
2018-11-06T22:22:47.554Z,81.50
2018-11-06T22:25:15.908Z,81.70
2018-11-06T22:27:44.359Z,81.60
2018-11-06T22:30:14.807Z,82.10
2018-11-06T22:32:43.592Z,82.00
2018-11-06T22:35:13.020Z,81.60
2018-11-06T22:37:42.397Z,81.50
2018-11-06T22:40:12.204Z,81.50
2018-11-06T22:42:40.580Z,80.70
2018-11-06T22:45:10.707Z,81.40
2018-11-06T22:47:39.039Z,81.20
2018-11-06T22:50:08.707Z,81.10
2018-11-06T22:52:36.971Z,81.00
2018-11-06T22:55:05.745Z,80.80
2018-11-06T22:57:34.028Z,80.90
2018-11-06T23:00:02.304Z,80.80
2018-11-06T23:02:30.635Z,80.30
2018-11-06T23:04:58.954Z,80.10
2018-11-06T23:07:32.645Z,80.00
2018-11-06T23:10:00.899Z,79.80
2018-11-06T23:12:29.119Z,79.40
2018-11-06T23:14:58.270Z,79.30
2018-11-06T23:17:26.510Z,79.10
2018-11-06T23:19:54.764Z,78.90
2018-11-06T23:22:23.092Z,78.80
2018-11-06T23:24:51.346Z,78.70
2018-11-06T23:27:19.609Z,78.60
2018-11-06T23:29:47.863Z,78.30
2018-11-06T23:32:16.198Z,78.60
2018-11-06T23:34:44.465Z,78.50
2018-11-06T23:37:12.721Z,78.20
2018-11-06T23:39:40.988Z,78.60
2018-11-06T23:42:09.218Z,79.00
2018-11-06T23:44:37.476Z,78.90
2018-11-06T23:47:05.719Z,79.30
2018-11-06T23:49:34.018Z,78.30
